createdAt,value
2019-04-19T00:01:02.906Z,0.00
2019-04-19T00:02:04.991Z,0.00
2019-04-19T00:03:00.278Z,0.00
2019-04-19T00:04:07.838Z,0.00
2019-04-19T00:05:03.066Z,0.00
2019-04-19T00:07:02.383Z,0.00
2019-04-19T00:08:11.669Z,0.00
2019-04-19T00:09:08.977Z,0.00
2019-04-19T00:14:18.964Z,0.00
2019-04-19T00:16:19.487Z,0.00
2019-04-19T00:17:23.414Z,0.00
2019-04-19T00:18:20.981Z,0.00
2019-04-19T00:19:33.217Z,0.00
2019-04-19T00:20:36.795Z,0.00
2019-04-19T00:21:34.760Z,0.00
2019-04-19T00:22:33.235Z,0.00
2019-04-19T00:26:20.869Z,0.00
2019-04-19T00:27:18.541Z,0.00
2019-04-19T00:28:25.937Z,0.00
2019-04-19T00:29:25.702Z,0.00
2019-04-19T00:30:36.396Z,0.00
2019-04-19T00:31:30.864Z,0.00
2019-04-19T00:32:33.885Z,0.00
2019-04-19T00:33:28.544Z,0.00
2019-04-19T00:34:18.841Z,0.00
2019-04-19T00:35:18.778Z,0.00
2019-04-19T00:36:19.868Z,0.00
2019-04-19T00:37:18.843Z,0.00
2019-04-19T00:38:35.710Z,0.00
2019-04-19T00:39:33.724Z,0.00
2019-04-19T00:40:36.355Z,0.00
2019-04-19T00:41:35.775Z,0.00
2019-04-19T00:42:35.690Z,0.00
2019-04-19T00:43:38.930Z,0.00
2019-04-19T00:44:39.905Z,0.00
2019-04-19T00:45:31.104Z,0.00
2019-04-19T00:46:35.444Z,0.00
2019-04-19T00:47:35.544Z,0.00
2019-04-19T00:48:39.108Z,0.00
2019-04-19T00:49:27.942Z,0.00
2019-04-19T00:50:29.391Z,0.00
2019-04-19T00:51:36.418Z,0.00
2019-04-19T00:52:38.337Z,0.00
2019-04-19T00:53:28.655Z,0.00
2019-04-19T00:54:28.016Z,0.00
2019-04-19T00:55:25.741Z,0.00
2019-04-19T00:56:31.232Z,0.00
2019-04-19T00:57:32.559Z,0.00
2019-04-19T00:58:24.970Z,0.00
2019-04-19T00:59:21.093Z,0.00
2019-04-19T01:00:25.812Z,0.00
2019-04-19T01:01:24.175Z,0.00
2019-04-19T01:02:21.427Z,0.00
2019-04-19T01:03:27.463Z,0.00
2019-04-19T01:04:25.052Z,0.00
2019-04-19T01:05:23.284Z,0.00
2019-04-19T01:06:21.943Z,0.00
2019-04-19T01:07:26.282Z,0.00
2019-04-19T01:08:23.219Z,0.00
2019-04-19T01:09:35.540Z,0.00
2019-04-19T01:10:35.086Z,0.00
2019-04-19T01:11:31.806Z,0.00
2019-04-19T01:12:29.071Z,0.00
2019-04-19T01:13:38.129Z,0.00
2019-04-19T01:14:30.074Z,0.00
2019-04-19T01:15:30.991Z,0.00
2019-04-19T01:16:30.977Z,0.00
2019-04-19T01:17:33.273Z,0.00
2019-04-19T01:18:29.716Z,0.00
2019-04-19T01:19:22.391Z,0.00
2019-04-19T01:20:20.475Z,0.00
2019-04-19T01:21:20.156Z,0.00
2019-04-19T01:22:23.940Z,0.00
2019-04-19T01:23:21.359Z,0.00
2019-04-19T01:24:26.488Z,0.00
2019-04-19T01:25:24.067Z,0.00
2019-04-19T01:26:21.413Z,0.00
2019-04-19T01:27:24.856Z,0.00
2019-04-19T01:28:23.889Z,0.00
2019-04-19T01:29:21.806Z,0.00
2019-04-19T01:30:26.612Z,0.00
2019-04-19T01:31:24.583Z,0.00
2019-04-19T01:32:22.597Z,0.00
2019-04-19T01:33:28.260Z,0.00
2019-04-19T01:34:23.968Z,0.00
2019-04-19T01:35:21.878Z,0.00
2019-04-19T01:36:27.729Z,0.00
2019-04-19T01:37:23.962Z,0.00
2019-04-19T01:38:21.162Z,0.00
2019-04-19T01:39:32.497Z,0.00
2019-04-19T01:40:35.341Z,0.00
2019-04-19T01:41:37.301Z,0.00
2019-04-19T01:42:36.729Z,0.00
2019-04-19T01:43:41.259Z,0.00
2019-04-19T01:44:41.212Z,0.00
2019-04-19T01:45:41.850Z,0.00
2019-04-19T01:46:38.982Z,0.00
2019-04-19T01:47:36.343Z,0.00
2019-04-19T01:48:39.501Z,0.00
2019-04-19T01:49:36.986Z,0.00
2019-04-19T01:50:38.376Z,0.00
2019-04-19T01:51:45.046Z,0.00
2019-04-19T01:52:47.621Z,0.00
2019-04-19T01:53:39.411Z,0.00
2019-04-19T01:54:35.824Z,0.00
2019-04-19T01:55:28.313Z,0.00
2019-04-19T01:56:22.036Z,0.00
2019-04-19T01:57:24.367Z,0.00
2019-04-19T01:58:22.635Z,0.00
2019-04-19T01:59:24.799Z,0.00
2019-04-19T02:00:29.171Z,0.00
2019-04-19T02:01:25.963Z,0.00
2019-04-19T02:02:25.750Z,0.00
2019-04-19T02:03:23.414Z,0.00
2019-04-19T02:04:25.220Z,0.00
2019-04-19T02:05:23.556Z,0.00
2019-04-19T02:06:28.773Z,0.00
2019-04-19T02:07:25.828Z,0.00
2019-04-19T02:08:22.728Z,0.00
2019-04-19T02:09:32.744Z,0.00
2019-04-19T02:10:37.753Z,0.00
2019-04-19T02:11:33.340Z,0.00
2019-04-19T02:12:34.555Z,0.00
2019-04-19T02:13:28.843Z,0.00
2019-04-19T02:14:27.033Z,0.00
2019-04-19T02:15:33.127Z,0.00
2019-04-19T02:16:23.848Z,0.00
2019-04-19T02:17:23.060Z,0.00
2019-04-19T02:18:24.588Z,0.00
2019-04-19T02:19:26.471Z,0.00
2019-04-19T02:20:22.286Z,0.00
2019-04-19T02:22:11.239Z,0.00
2019-04-19T02:23:08.296Z,0.00
2019-04-19T02:24:06.772Z,0.00
2019-04-19T02:25:12.583Z,0.00
2019-04-19T02:26:09.579Z,0.00
2019-04-19T02:27:09.146Z,0.00
2019-04-19T02:28:08.190Z,0.00
2019-04-19T02:29:11.231Z,0.00
2019-04-19T02:30:14.067Z,0.00
2019-04-19T02:31:27.606Z,0.00
2019-04-19T02:32:22.263Z,0.00
2019-04-19T02:33:32.686Z,0.00
2019-04-19T02:35:35.037Z,0.00
2019-04-19T02:36:35.651Z,0.00
2019-04-19T02:37:24.603Z,0.00
2019-04-19T02:38:36.660Z,0.00
2019-04-19T02:39:38.552Z,0.00
2019-04-19T02:41:53.360Z,0.00
2019-04-19T02:42:40.668Z,0.00
2019-04-19T02:43:37.867Z,0.00
2019-04-19T02:44:36.479Z,0.00
2019-04-19T02:45:29.112Z,0.00
2019-04-19T02:46:52.866Z,0.00
2019-04-19T02:47:42.182Z,0.00
2019-04-19T02:48:42.399Z,0.00
2019-04-19T02:49:35.943Z,0.00
2019-04-19T02:50:56.241Z,0.00
2019-04-19T02:51:33.042Z,0.00
2019-04-19T02:53:37.428Z,0.00
2019-04-19T02:54:38.211Z,0.00
2019-04-19T02:55:29.284Z,0.00
2019-04-19T02:56:46.763Z,0.00
2019-04-19T02:57:36.370Z,0.00
2019-04-19T02:58:38.359Z,0.00
2019-04-19T02:59:41.387Z,0.00
2019-04-19T03:00:40.179Z,0.00
2019-04-19T03:01:41.932Z,0.00
2019-04-19T03:02:42.045Z,0.00
2019-04-19T03:03:27.458Z,0.00
2019-04-19T03:05:36.560Z,0.00
2019-04-19T03:06:21.572Z,0.00
2019-04-19T03:07:09.141Z,0.00
2019-04-19T03:08:06.220Z,0.00
2019-04-19T03:09:07.131Z,0.00
2019-04-19T03:10:14.001Z,0.00
2019-04-19T03:11:19.823Z,0.00
2019-04-19T03:12:26.631Z,0.00
2019-04-19T03:13:21.713Z,0.00
2019-04-19T03:14:16.442Z,0.00
2019-04-19T03:15:18.998Z,0.00
2019-04-19T03:16:25.546Z,0.00
2019-04-19T03:17:24.573Z,0.00
2019-04-19T03:18:34.046Z,0.00
2019-04-19T03:19:18.192Z,0.00
2019-04-19T03:20:22.096Z,0.00
2019-04-19T03:21:27.780Z,0.00
2019-04-19T03:22:23.474Z,0.00
2019-04-19T03:23:18.849Z,0.00
2019-04-19T03:24:18.949Z,0.00
2019-04-19T03:25:18.358Z,0.00
2019-04-19T03:26:20.837Z,0.00
2019-04-19T03:27:15.323Z,0.00
2019-04-19T03:28:18.586Z,0.00
2019-04-19T03:29:12.168Z,0.00
2019-04-19T03:30:23.519Z,0.00
2019-04-19T03:31:38.349Z,0.00
2019-04-19T03:32:44.900Z,0.00
2019-04-19T03:34:16.215Z,0.00
2019-04-19T03:35:04.037Z,0.00
2019-04-19T03:36:05.627Z,0.00
2019-04-19T03:37:06.351Z,0.00
2019-04-19T03:38:08.520Z,0.00
2019-04-19T03:39:11.706Z,0.00
2019-04-19T03:40:19.167Z,0.00
2019-04-19T03:41:15.655Z,0.00
2019-04-19T03:42:12.960Z,0.00
2019-04-19T03:44:06.859Z,0.00
2019-04-19T03:45:08.629Z,0.00
2019-04-19T03:46:08.711Z,0.00
2019-04-19T03:47:09.510Z,0.00
2019-04-19T03:48:12.229Z,0.00
2019-04-19T03:49:13.565Z,0.00
2019-04-19T03:50:13.399Z,0.00
2019-04-19T03:51:41.306Z,0.00
2019-04-19T03:52:14.622Z,0.00
2019-04-19T03:53:09.178Z,0.00
2019-04-19T03:54:08.325Z,0.00
2019-04-19T03:55:09.626Z,0.00
2019-04-19T03:56:09.422Z,0.00
2019-04-19T03:57:04.745Z,0.00
2019-04-19T03:57:58.124Z,0.00
2019-04-19T03:58:52.446Z,0.00
2019-04-19T03:59:50.140Z,0.00
2019-04-19T04:00:50.339Z,4.00
2019-04-19T04:01:54.793Z,0.00
2019-04-19T04:02:51.252Z,0.00
2019-04-19T04:03:51.379Z,4.00
2019-04-19T04:04:58.262Z,4.00
2019-04-19T04:05:53.012Z,4.00
2019-04-19T04:06:50.540Z,4.00
2019-04-19T04:07:59.274Z,4.00
2019-04-19T04:08:55.282Z,8.00
2019-04-19T04:09:55.432Z,8.00
2019-04-19T04:12:00.488Z,12.00
2019-04-19T04:13:02.165Z,16.00
2019-04-19T04:14:04.819Z,20.00
2019-04-19T04:15:04.766Z,20.00
2019-04-19T04:16:03.525Z,28.00
2019-04-19T04:16:53.163Z,32.00
2019-04-19T04:17:50.306Z,36.00
2019-04-19T04:18:51.333Z,44.00
2019-04-19T04:19:50.479Z,52.00
2019-04-19T04:20:53.729Z,64.00
2019-04-19T04:22:54.466Z,80.00
2019-04-19T04:23:59.978Z,96.00
2019-04-19T04:24:58.235Z,108.00
2019-04-19T04:25:59.198Z,124.00
2019-04-19T04:27:03.069Z,140.00
2019-04-19T04:28:02.003Z,156.00
2019-04-19T04:29:03.531Z,180.00
2019-04-19T04:30:04.854Z,200.00
2019-04-19T04:31:00.857Z,220.00
2019-04-19T04:32:01.502Z,248.00
2019-04-19T04:35:09.794Z,328.00
2019-04-19T04:36:11.663Z,352.00
2019-04-19T04:37:09.907Z,388.00
2019-04-19T04:38:51.723Z,456.00
2019-04-19T04:39:51.434Z,488.00
2019-04-19T04:40:50.960Z,524.00
2019-04-19T04:41:58.353Z,560.00
2019-04-19T04:43:03.896Z,596.00
2019-04-19T04:44:07.931Z,636.00
2019-04-19T04:45:20.570Z,676.00
2019-04-19T04:46:20.061Z,720.00
2019-04-19T04:47:11.662Z,760.00
2019-04-19T04:48:05.345Z,800.00
2019-04-19T04:49:13.623Z,844.00
2019-04-19T04:51:14.417Z,932.00
2019-04-19T04:52:04.198Z,976.00
2019-04-19T04:52:52.708Z,1020.00
2019-04-19T04:55:57.939Z,1156.00
2019-04-19T04:57:02.536Z,1196.00
2019-04-19T04:57:57.259Z,1244.00
2019-04-19T04:58:52.463Z,1292.00
2019-04-19T04:59:54.235Z,1340.00
2019-04-19T05:00:58.924Z,1384.00
2019-04-19T05:01:58.642Z,1428.00
2019-04-19T05:03:03.745Z,1472.00
2019-04-19T05:04:08.754Z,1520.00
2019-04-19T05:05:11.397Z,1568.00
2019-04-19T05:07:12.168Z,1660.00
2019-04-19T05:08:14.212Z,1704.00
2019-04-19T05:09:14.057Z,1752.00
2019-04-19T05:10:09.324Z,1796.00
2019-04-19T05:15:07.644Z,2024.00
2019-04-19T05:16:16.168Z,2068.00
2019-04-19T05:19:09.805Z,2196.00
2019-04-19T05:20:41.013Z,2240.00
2019-04-19T05:21:16.121Z,2284.00
2019-04-19T05:24:25.344Z,2424.00
2019-04-19T05:25:19.453Z,2480.00
2019-04-19T05:26:26.628Z,2548.00
2019-04-19T05:29:06.895Z,2744.00
2019-04-19T05:29:55.821Z,2804.00
2019-04-19T05:30:58.679Z,2848.00
2019-04-19T05:31:56.130Z,2892.00
2019-04-19T05:33:04.755Z,2936.00
2019-04-19T05:34:17.695Z,2976.00
2019-04-19T05:35:08.399Z,3020.00
2019-04-19T05:38:07.197Z,3144.00
2019-04-19T05:39:17.283Z,3188.00
2019-04-19T05:40:09.479Z,3224.00
2019-04-19T05:41:02.321Z,3268.00
2019-04-19T05:42:05.197Z,3308.00
2019-04-19T05:43:17.904Z,3348.00
2019-04-19T05:44:21.035Z,3388.00
2019-04-19T05:45:31.538Z,3428.00
2019-04-19T05:47:13.465Z,3504.00
2019-04-19T05:48:02.533Z,3544.00
2019-04-19T05:51:43.783Z,3672.00
2019-04-19T05:52:39.537Z,3704.00
2019-04-19T05:53:27.940Z,3740.00
2019-04-19T05:54:20.438Z,3780.00
2019-04-19T05:55:20.462Z,3816.00
2019-04-19T05:56:19.997Z,3848.00
2019-04-19T05:57:35.965Z,3880.00
2019-04-19T05:58:25.067Z,3916.00
2019-04-19T05:59:33.358Z,3952.00
2019-04-19T06:00:33.920Z,3980.00
2019-04-19T06:01:36.471Z,4016.00
2019-04-19T06:02:29.601Z,4052.00
2019-04-19T06:03:27.244Z,4084.00
2019-04-19T06:04:37.425Z,4120.00
2019-04-19T06:05:44.526Z,4152.00
2019-04-19T06:06:45.705Z,4188.00
2019-04-19T06:07:37.389Z,4220.00
2019-04-19T06:08:26.534Z,4252.00
2019-04-19T06:09:19.689Z,4288.00
2019-04-19T06:10:19.387Z,4320.00
2019-04-19T06:11:26.226Z,4356.00
2019-04-19T06:12:23.640Z,4388.00
2019-04-19T06:13:20.686Z,4428.00
2019-04-19T06:14:45.457Z,4460.00
2019-04-19T06:15:42.880Z,4496.00
2019-04-19T06:16:35.964Z,4528.00
2019-04-19T06:17:36.798Z,4560.00
2019-04-19T06:18:33.076Z,4596.00
2019-04-19T06:19:35.299Z,4624.00
2019-04-19T06:20:33.766Z,4660.00
2019-04-19T06:21:39.224Z,4696.00
2019-04-19T06:22:40.587Z,4724.00
2019-04-19T06:23:44.173Z,4756.00
2019-04-19T06:24:36.910Z,4792.00
2019-04-19T06:25:46.495Z,4824.00
2019-04-19T06:26:53.408Z,4856.00
2019-04-19T06:27:53.075Z,4888.00
2019-04-19T06:28:44.238Z,4920.00
2019-04-19T06:29:46.205Z,4956.00
2019-04-19T06:30:41.459Z,4988.00
2019-04-19T06:31:39.568Z,5024.00
2019-04-19T06:32:33.917Z,5056.00
2019-04-19T06:33:37.620Z,5088.00
2019-04-19T06:34:36.504Z,5120.00
2019-04-19T06:35:32.662Z,5160.00
2019-04-19T06:36:20.933Z,5188.00
2019-04-19T06:37:24.750Z,5220.00
2019-04-19T06:38:20.459Z,5252.00
2019-04-19T06:39:20.495Z,5288.00
2019-04-19T06:40:26.466Z,5324.00
2019-04-19T06:41:23.246Z,5356.00
2019-04-19T06:42:31.868Z,5388.00
2019-04-19T06:43:35.099Z,5420.00
2019-04-19T06:44:43.696Z,5452.00
2019-04-19T06:45:35.609Z,5484.00
2019-04-19T06:46:36.388Z,5512.00
2019-04-19T06:47:28.768Z,5548.00
2019-04-19T06:48:26.638Z,5584.00
2019-04-19T06:49:25.090Z,5612.00
2019-04-19T06:50:27.478Z,5644.00
2019-04-19T06:51:28.509Z,5680.00
2019-04-19T06:52:25.941Z,5708.00
2019-04-19T06:53:20.942Z,5740.00
2019-04-19T06:54:28.581Z,5776.00
2019-04-19T06:55:26.804Z,5808.00
2019-04-19T06:56:28.324Z,5844.00
2019-04-19T06:57:27.282Z,5880.00
2019-04-19T06:58:24.931Z,5920.00
2019-04-19T06:59:39.437Z,5952.00
2019-04-19T07:00:36.331Z,5992.00
2019-04-19T07:01:31.372Z,6024.00
2019-04-19T07:02:22.140Z,6064.00
2019-04-19T07:03:21.614Z,6108.00
2019-04-19T07:04:21.179Z,6144.00
2019-04-19T07:05:33.816Z,6184.00
2019-04-19T07:06:36.437Z,6224.00
2019-04-19T07:07:36.525Z,6264.00
2019-04-19T07:09:46.175Z,6344.00
2019-04-19T07:11:46.045Z,6428.00
2019-04-19T07:12:44.134Z,6472.00
2019-04-19T07:13:35.972Z,6516.00
2019-04-19T07:14:26.342Z,6560.00
2019-04-19T07:16:04.236Z,6600.00
2019-04-19T07:16:51.460Z,6648.00
2019-04-19T07:17:37.597Z,6692.00
2019-04-19T07:18:33.834Z,6736.00
2019-04-19T07:19:38.951Z,6788.00
2019-04-19T07:20:33.857Z,6844.00
2019-04-19T07:21:37.213Z,6896.00
2019-04-19T07:22:40.042Z,6944.00
2019-04-19T07:23:43.771Z,7000.00
2019-04-19T07:24:45.783Z,7052.00
2019-04-19T07:26:00.082Z,7104.00
2019-04-19T07:26:38.747Z,7164.00
2019-04-19T07:27:35.875Z,7220.00
2019-04-19T07:28:26.403Z,7276.00
2019-04-19T07:29:22.116Z,7332.00
2019-04-19T07:30:22.546Z,7392.00
2019-04-19T07:31:21.848Z,7448.00
2019-04-19T07:32:31.934Z,7508.00
2019-04-19T07:33:38.943Z,7568.00
2019-04-19T07:34:40.765Z,7616.00
2019-04-19T07:35:47.345Z,7680.00
2019-04-19T07:36:40.341Z,7736.00
2019-04-19T07:37:39.819Z,7792.00
2019-04-19T07:38:57.567Z,7852.00
2019-04-19T07:39:48.162Z,7908.00
2019-04-19T07:40:42.947Z,7964.00
2019-04-19T07:41:37.663Z,8008.00
2019-04-19T07:42:39.834Z,8084.00
2019-04-19T07:43:36.541Z,8144.00
2019-04-19T07:44:31.677Z,8208.00
2019-04-19T07:45:30.944Z,8272.00
2019-04-19T07:46:38.736Z,8336.00
2019-04-19T07:47:36.761Z,8396.00
2019-04-19T07:48:24.572Z,8464.00
2019-04-19T07:49:23.357Z,8528.00
2019-04-19T07:50:27.819Z,8596.00
2019-04-19T07:51:28.639Z,8664.00
2019-04-19T07:52:26.310Z,8728.00
2019-04-19T07:53:31.291Z,8796.00
2019-04-19T07:54:26.336Z,8868.00
2019-04-19T07:55:22.736Z,8944.00
2019-04-19T07:56:35.644Z,9012.00
2019-04-19T07:59:02.599Z,9148.00
2019-04-19T07:59:48.476Z,9220.00
2019-04-19T08:02:49.668Z,9448.00
2019-04-19T08:06:58.707Z,9752.00
2019-04-19T08:08:06.696Z,9816.00
2019-04-19T08:09:02.295Z,9892.00
2019-04-19T08:09:53.572Z,9968.00
2019-04-19T08:15:04.493Z,10336.00
2019-04-19T08:15:54.661Z,10408.00
2019-04-19T08:17:31.298Z,10480.00
2019-04-19T08:27:33.210Z,11224.00
2019-04-19T08:28:31.156Z,11284.00
2019-04-19T08:29:35.253Z,11352.00
2019-04-19T08:30:33.884Z,11404.00
2019-04-19T08:31:25.118Z,11468.00
2019-04-19T08:32:23.887Z,11520.00
2019-04-19T08:33:23.925Z,11568.00
2019-04-19T08:34:27.278Z,11616.00
2019-04-19T08:35:23.990Z,11676.00
2019-04-19T08:36:29.801Z,11740.00
2019-04-19T08:38:28.672Z,11868.00
2019-04-19T08:39:42.873Z,11932.00
2019-04-19T08:40:44.024Z,11996.00
2019-04-19T08:41:39.789Z,12048.00
2019-04-19T08:42:41.553Z,12088.00
2019-04-19T08:43:41.511Z,12140.00
2019-04-19T08:44:38.589Z,12192.00
2019-04-19T08:45:26.928Z,12228.00
2019-04-19T08:46:24.375Z,12280.00
2019-04-19T08:47:32.633Z,12332.00
2019-04-19T08:48:33.531Z,12360.00
2019-04-19T08:49:31.094Z,12408.00
2019-04-19T08:50:24.518Z,12456.00
2019-04-19T08:51:28.639Z,12512.00
2019-04-19T08:52:29.117Z,12564.00
2019-04-19T08:53:40.393Z,12612.00
2019-04-19T08:54:49.106Z,12664.00
2019-04-19T08:55:41.828Z,12712.00
2019-04-19T08:57:27.538Z,12800.00
2019-04-19T08:58:47.997Z,12844.00
2019-04-19T08:59:50.891Z,12892.00
2019-04-19T09:00:52.008Z,12940.00
2019-04-19T09:01:44.517Z,12996.00
2019-04-19T09:02:44.112Z,13052.00
2019-04-19T09:03:49.067Z,13096.00
2019-04-19T09:04:44.015Z,13152.00
2019-04-19T09:05:42.156Z,13204.00
2019-04-19T09:09:51.908Z,13388.00
2019-04-19T09:10:47.065Z,13424.00
2019-04-19T09:11:49.835Z,13476.00
2019-04-19T09:12:47.230Z,13520.00
2019-04-19T09:13:47.975Z,13576.00
2019-04-19T09:14:48.327Z,13628.00
2019-04-19T09:15:39.539Z,13692.00
2019-04-19T09:16:56.053Z,13744.00
2019-04-19T09:18:08.866Z,13788.00
2019-04-19T09:18:50.428Z,13844.00
2019-04-19T09:20:00.989Z,13900.00
2019-04-19T09:20:48.047Z,13972.00
2019-04-19T09:21:39.496Z,14024.00
2019-04-19T09:22:43.877Z,14072.00
2019-04-19T09:23:37.269Z,14132.00
2019-04-19T09:24:37.021Z,14196.00
2019-04-19T09:25:37.090Z,14268.00
2019-04-19T09:26:43.758Z,14336.00
2019-04-19T09:27:56.290Z,14384.00
2019-04-19T09:29:10.881Z,14456.00
2019-04-19T09:29:45.429Z,14564.00
2019-04-19T09:30:42.394Z,14684.00
2019-04-19T09:31:35.974Z,14804.00
2019-04-19T09:32:29.197Z,15064.00
2019-04-19T09:33:30.824Z,15920.00
2019-04-19T09:34:27.058Z,29120.00
2019-04-19T09:35:31.065Z,52416.00
2019-04-19T09:36:34.703Z,68480.00
2019-04-19T09:37:41.670Z,70976.00
2019-04-19T09:38:39.644Z,71328.00
2019-04-19T09:39:42.574Z,70880.00
2019-04-19T09:41:59.224Z,73280.00
2019-04-19T09:43:02.855Z,71360.00
2019-04-19T09:44:02.953Z,72512.00
2019-04-19T09:44:56.311Z,76704.00
2019-04-19T09:45:51.616Z,80736.00
2019-04-19T09:46:52.899Z,78976.00
2019-04-19T09:47:52.469Z,80224.00
2019-04-19T09:49:09.614Z,80288.00
2019-04-19T09:50:04.367Z,81408.00
2019-04-19T09:51:07.569Z,82880.00
2019-04-19T09:52:11.409Z,81696.00
2019-04-19T09:53:25.008Z,83040.00
2019-04-19T09:54:16.240Z,82848.00
2019-04-19T09:55:17.272Z,83552.00
2019-04-19T09:56:12.289Z,85472.00
2019-04-19T09:57:05.410Z,88672.00
2019-04-19T09:58:14.235Z,89632.00
2019-04-19T09:59:03.008Z,89120.00
2019-04-19T10:00:03.292Z,87648.00
2019-04-19T10:00:54.286Z,89248.00
2019-04-19T10:02:58.561Z,91072.00
2019-04-19T10:03:59.112Z,88608.00
2019-04-19T10:04:52.775Z,84448.00
2019-04-19T10:05:56.127Z,85312.00
2019-04-19T10:06:53.503Z,86144.00
2019-04-19T10:07:52.767Z,88544.00
2019-04-19T10:08:53.899Z,91520.00
2019-04-19T10:09:55.404Z,93760.00
2019-04-19T10:11:53.076Z,93888.00
2019-04-19T10:12:53.858Z,92256.00
2019-04-19T10:14:53.645Z,87264.00
2019-04-19T10:16:53.020Z,91040.00
2019-04-19T10:19:04.195Z,95616.00
2019-04-19T10:19:53.185Z,94944.00
2019-04-19T10:20:54.641Z,95008.00
2019-04-19T10:21:54.102Z,93664.00
2019-04-19T10:23:54.088Z,95552.00
2019-04-19T10:24:54.342Z,100544.00
2019-04-19T10:25:57.591Z,100768.00
2019-04-19T10:26:54.543Z,96128.00
2019-04-19T10:27:53.609Z,96672.00
2019-04-19T10:28:53.601Z,95808.00
2019-04-19T10:29:53.739Z,91168.00
2019-04-19T10:30:54.796Z,90848.00
2019-04-19T10:31:55.105Z,94656.00
2019-04-19T10:33:58.078Z,99392.00
2019-04-19T10:34:54.608Z,97024.00
2019-04-19T10:35:53.946Z,97440.00
2019-04-19T10:36:56.774Z,99616.00
2019-04-19T10:37:55.557Z,98208.00
2019-04-19T10:38:56.567Z,99424.00
2019-04-19T10:39:55.230Z,102240.00
2019-04-19T10:40:55.472Z,99840.00
2019-04-19T10:41:54.472Z,96736.00
2019-04-19T10:42:54.329Z,96192.00
2019-04-19T10:44:03.938Z,92704.00
2019-04-19T10:44:54.393Z,91200.00
2019-04-19T10:45:54.442Z,94112.00
2019-04-19T10:46:54.574Z,98560.00
2019-04-19T10:47:55.758Z,99168.00
2019-04-19T10:50:06.675Z,106720.00
2019-04-19T10:50:55.168Z,103552.00
2019-04-19T10:52:37.422Z,91616.00
2019-04-19T10:53:38.624Z,95584.00
2019-04-19T10:54:45.350Z,103264.00
2019-04-19T10:55:38.208Z,107104.00
2019-04-19T10:56:38.519Z,106176.00
2019-04-19T10:57:38.938Z,103040.00
2019-04-19T11:01:39.030Z,104704.00
2019-04-19T11:03:39.070Z,105696.00
2019-04-19T11:04:38.638Z,103040.00
2019-04-19T11:05:38.717Z,100896.00
2019-04-19T11:08:38.409Z,108192.00
2019-04-19T11:10:38.242Z,107872.00
2019-04-19T11:13:38.399Z,107552.00
2019-04-19T11:15:38.502Z,109280.00
2019-04-19T11:16:39.551Z,110112.00
2019-04-19T11:17:38.589Z,111520.00
2019-04-19T11:18:39.421Z,110112.00
2019-04-19T11:19:49.733Z,111360.00
2019-04-19T11:20:46.400Z,118656.00
2019-04-19T11:21:38.783Z,119424.00
2019-04-19T11:22:39.840Z,114048.00
2019-04-19T11:23:39.792Z,110976.00
2019-04-19T11:24:39.196Z,112000.00
2019-04-19T11:25:40.273Z,113280.00
2019-04-19T11:26:39.061Z,111776.00
2019-04-19T11:27:39.418Z,109184.00
2019-04-19T11:28:39.164Z,109440.00
2019-04-19T11:31:39.551Z,110048.00
2019-04-19T11:33:41.273Z,117024.00
2019-04-19T11:34:40.942Z,116096.00
2019-04-19T11:35:41.292Z,117920.00
2019-04-19T11:41:41.023Z,114400.00
2019-04-19T11:44:39.990Z,114912.00
2019-04-19T11:57:20.645Z,107488.00
2019-04-19T12:00:47.814Z,111488.00
2019-04-19T12:01:46.556Z,112192.00
2019-04-19T12:03:47.968Z,112672.00
2019-04-19T12:04:48.119Z,110656.00
2019-04-19T12:05:47.240Z,107680.00
2019-04-19T12:06:48.101Z,106848.00
2019-04-19T12:07:48.311Z,107680.00
2019-04-19T12:57:17.940Z,102944.00
2019-04-19T12:58:17.577Z,102656.00
2019-04-19T12:59:19.712Z,104800.00
2019-04-19T13:00:18.095Z,108320.00
2019-04-19T13:01:17.801Z,109984.00
2019-04-19T13:02:17.898Z,109344.00
2019-04-19T13:03:18.019Z,111232.00
2019-04-19T13:05:18.234Z,110240.00
2019-04-19T13:06:17.895Z,109792.00
2019-04-19T13:07:17.451Z,106528.00
2019-04-19T13:10:18.208Z,108928.00
2019-04-19T13:11:18.709Z,105408.00
2019-04-19T13:12:17.470Z,106624.00
2019-04-19T13:13:18.167Z,108096.00
2019-04-19T13:14:17.605Z,103136.00
2019-04-19T13:15:17.813Z,102368.00
2019-04-19T13:16:18.579Z,106944.00
2019-04-19T13:17:18.089Z,107808.00
2019-04-19T13:18:18.274Z,105824.00
2019-04-19T13:19:20.591Z,106592.00
2019-04-19T13:20:24.222Z,108704.00
2019-04-19T13:21:17.947Z,107584.00
2019-04-19T13:22:18.613Z,109600.00
2019-04-19T13:23:18.051Z,111040.00
2019-04-19T13:24:18.357Z,108896.00
2019-04-19T13:25:18.810Z,107040.00
2019-04-19T13:26:18.202Z,108032.00
2019-04-19T13:27:19.115Z,108096.00
2019-04-19T13:28:19.542Z,104800.00
2019-04-19T13:29:19.607Z,103200.00
2019-04-19T13:30:27.763Z,104640.00
2019-04-19T13:31:18.744Z,101600.00
2019-04-19T13:32:19.674Z,102464.00
2019-04-19T13:33:18.699Z,104032.00
2019-04-19T13:34:19.021Z,100000.00
2019-04-19T13:35:19.199Z,99360.00
2019-04-19T13:36:19.370Z,104672.00
2019-04-19T13:37:18.920Z,107552.00
2019-04-19T13:38:19.236Z,106368.00
2019-04-19T13:39:21.420Z,106560.00
2019-04-19T13:40:19.949Z,107328.00
2019-04-19T13:41:18.929Z,109440.00
2019-04-19T13:42:19.098Z,111264.00
2019-04-19T13:43:19.030Z,111776.00
2019-04-19T13:44:19.080Z,111968.00
2019-04-19T13:45:26.076Z,114720.00
2019-04-19T13:46:19.180Z,113312.00
2019-04-19T13:47:20.442Z,56960.00
2019-04-19T13:48:19.279Z,90144.00
2019-04-19T13:49:19.329Z,59040.00
2019-04-19T13:50:26.078Z,111968.00
2019-04-19T13:51:20.593Z,83584.00
2019-04-19T13:52:20.616Z,114624.00
2019-04-19T13:53:20.459Z,115520.00
2019-04-19T13:54:20.765Z,115040.00
2019-04-19T13:55:20.896Z,113952.00
2019-04-19T13:56:20.501Z,111392.00
2019-04-19T13:57:19.783Z,108288.00
2019-04-19T13:58:19.966Z,103776.00
2019-04-19T13:59:20.107Z,100288.00
2019-04-19T14:00:20.433Z,94432.00
2019-04-19T14:01:20.798Z,93568.00
2019-04-19T14:02:20.640Z,95936.00
2019-04-19T14:03:21.344Z,100032.00
2019-04-19T14:04:20.074Z,100320.00
2019-04-19T14:05:20.124Z,100768.00
2019-04-19T14:06:20.177Z,99808.00
2019-04-19T14:07:21.142Z,92864.00
2019-04-19T14:08:21.549Z,98304.00
2019-04-19T14:09:21.103Z,100448.00
2019-04-19T14:10:21.235Z,101984.00
2019-04-19T14:11:21.406Z,101152.00
2019-04-19T14:12:20.957Z,98016.00
2019-04-19T14:13:21.129Z,96672.00
2019-04-19T14:14:20.573Z,96064.00
2019-04-19T14:15:20.624Z,93504.00
2019-04-19T14:16:21.614Z,91264.00
2019-04-19T14:17:21.960Z,92320.00
2019-04-19T14:18:20.775Z,92736.00
2019-04-19T14:19:20.825Z,93120.00
2019-04-19T14:20:32.351Z,85312.00
2019-04-19T14:21:22.072Z,25280.00
2019-04-19T14:22:21.321Z,21696.00
2019-04-19T14:23:21.692Z,35552.00
2019-04-19T14:24:21.692Z,86720.00
2019-04-19T14:25:21.200Z,91264.00
2019-04-19T14:26:33.871Z,45312.00
2019-04-19T14:27:21.515Z,18528.00
2019-04-19T14:28:21.273Z,17184.00
2019-04-19T14:29:21.439Z,17000.00
2019-04-19T14:30:21.548Z,17424.00
2019-04-19T14:31:21.959Z,18528.00
2019-04-19T14:32:21.468Z,20096.00
2019-04-19T14:33:21.527Z,22944.00
2019-04-19T14:34:21.561Z,22880.00
2019-04-19T14:35:21.756Z,72128.00
2019-04-19T14:36:21.994Z,22176.00
2019-04-19T14:38:34.361Z,23264.00
2019-04-19T14:39:34.517Z,35136.00
2019-04-19T14:40:35.376Z,47712.00
2019-04-19T14:42:34.542Z,79648.00
2019-04-19T14:43:34.560Z,52896.00
2019-04-19T14:44:35.717Z,28160.00
2019-04-19T14:45:34.649Z,49056.00
2019-04-19T14:46:34.694Z,75296.00
2019-04-19T14:47:34.930Z,76576.00
2019-04-19T14:48:38.349Z,75808.00
2019-04-19T14:50:46.231Z,71040.00
2019-04-19T14:51:36.984Z,68704.00
2019-04-19T14:52:34.985Z,68192.00
2019-04-19T14:53:36.408Z,65440.00
2019-04-19T14:59:05.442Z,55456.00
2019-04-19T15:00:05.488Z,55232.00
2019-04-19T15:01:08.896Z,54656.00
2019-04-19T15:02:06.905Z,52864.00
2019-04-19T15:03:05.631Z,51872.00
2019-04-19T15:04:06.717Z,50656.00
2019-04-19T15:05:05.728Z,48768.00
2019-04-19T15:07:05.818Z,46368.00
2019-04-19T15:08:06.397Z,45280.00
2019-04-19T15:09:05.912Z,44064.00
2019-04-19T15:11:07.221Z,42624.00